Time;durP1;ratioP1;P1;durP2;ratioP2;P2;SDS_P1;SDS_P2;PMS_P1;PMS_P2;Temp;Humidity;BMP_temperature;BMP_pressure;BME280_temperature;BME280_humidity;BME280_pressure;Samples;Min_cycle;Max_cycle;Signal;HPM_P1;HPM_P2
2022/01/14 00:01:44;;;;;;;14.63;2.97;;;;;;;;;;5100916;22;21154;-58
2022/01/14 00:04:10;;;;;;;12.48;3.20;;;;;;;;;;5091427;28;20363;-59
2022/01/14 00:06:37;;;;;;;8.13;2.60;;;;;;;;;;5087373;28;20035;-59
2022/01/14 00:09:07;;;;;;;13.43;2.65;;;;;;;;;;5088514;22;20539;-56
2022/01/14 00:11:52;;;;;;;9.05;2.63;;;;;;;;;;5086906;28;20481;-58
2022/01/14 00:14:22;;;;;;;8.93;2.60;;;;;;;;;;5088148;28;20036;-58
2022/01/14 00:16:48;;;;;;;16.90;2.90;;;;;;;;;;5088431;28;20111;-56
2022/01/14 00:19:15;;;;;;;7.63;2.35;;;;;;;;;;5092051;28;20028;-57
2022/01/14 00:21:42;;;;;;;17.25;3.47;;;;;;;;;;5080380;28;20032;-57
2022/01/14 00:32:23;;;;;;;11.30;2.70;;;;;;;;;;5081658;28;20038;-58
2022/01/14 00:34:48;;;;;;;10.52;2.28;;;;;;;;;;5088168;28;20032;-57
2022/01/14 00:37:16;;;;;;;5.28;1.50;;;;;;;;;;5092295;28;20024;-57
2022/01/14 00:39:43;;;;;;;13.73;3.90;;;;;;;;;;5089855;28;20032;-58
2022/01/14 00:42:09;;;;;;;8.77;2.47;;;;;;;;;;5087126;28;20071;-57
2022/01/14 00:44:34;;;;;;;10.70;2.90;;;;;;;;;;5084435;28;20055;-58
2022/01/14 00:47:03;;;;;;;12.25;2.00;;;;;;;;;;5084766;28;20031;-57
2022/01/14 00:49:28;;;;;;;7.85;1.95;;;;;;;;;;5087677;28;20028;-57
2022/01/14 00:51:54;;;;;;;7.65;2.05;;;;;;;;;;5082357;28;20040;-58
2022/01/14 00:54:19;;;;;;;7.53;1.80;;;;;;;;;;5092007;28;20039;-57
2022/01/14 00:56:49;;;;;;;10.88;2.33;;;;;;;;;;5093017;28;20024;-58
2022/01/14 00:59:16;;;;;;;5.10;1.45;;;;;;;;;;5112284;28;20019;-57
2022/01/14 01:02:01;;;;;;;6.35;1.73;;;;;;;;;;5093063;28;20030;-57
2022/01/14 01:04:35;;;;;;;5.90;2.13;;;;;;;;;;5098826;28;20104;-58
2022/01/14 01:07:04;;;;;;;5.28;1.95;;;;;;;;;;5092307;28;20486;-57
2022/01/14 01:09:31;;;;;;;6.13;2.10;;;;;;;;;;5082409;28;20071;-57
2022/01/14 01:14:49;;;;;;;11.95;2.33;;;;;;;;;;5089625;28;20074;-58
2022/01/14 01:17:16;;;;;;;9.27;2.38;;;;;;;;;;5091348;28;20079;-58
2022/01/14 01:19:42;;;;;;;10.68;2.67;;;;;;;;;;5090064;28;20024;-58
2022/01/14 01:22:08;;;;;;;15.63;3.72;;;;;;;;;;5091163;28;20024;-57
2022/01/14 01:24:34;;;;;;;8.40;3.28;;;;;;;;;;5089424;28;20115;-58
2022/01/14 01:27:05;;;;;;;14.75;4.00;;;;;;;;;;5086595;28;20094;-58
2022/01/14 01:32:03;;;;;;;10.93;2.75;;;;;;;;;;5090646;28;20099;-58
2022/01/14 01:34:29;;;;;;;4.38;1.67;;;;;;;;;;5094922;28;20063;-58
2022/01/14 01:36:56;;;;;;;6.20;1.80;;;;;;;;;;5092898;28;20486;-57
2022/01/14 01:39:27;;;;;;;10.38;3.08;;;;;;;;;;5089109;28;20082;-56
2022/01/14 01:41:55;;;;;;;9.32;1.98;;;;;;;;;;5072094;28;20036;-58
2022/01/14 01:44:23;;;;;;;12.07;2.65;;;;;;;;;;5091354;28;20336;-56
2022/01/14 01:46:50;;;;;;;16.77;4.10;;;;;;;;;;5089729;28;20055;-59
2022/01/14 01:49:18;;;;;;;39.33;15.07;;;;;;;;;;5089449;28;20059;-57
2022/01/14 01:51:48;;;;;;;20.60;4.65;;;;;;;;;;5089728;28;20032;-58
2022/01/14 01:54:15;;;;;;;11.23;1.70;;;;;;;;;;5090241;28;20040;-58
2022/01/14 01:56:41;;;;;;;8.43;1.80;;;;;;;;;;5090911;28;20110;-57
2022/01/14 01:59:09;;;;;;;6.53;2.10;;;;;;;;;;5089410;28;20116;-57
2022/01/14 02:01:35;;;;;;;6.60;1.60;;;;;;;;;;5091502;28;20032;-57
2022/01/14 02:04:01;;;;;;;8.10;1.95;;;;;;;;;;5090567;28;20470;-58
2022/01/14 02:06:26;;;;;;;10.02;1.80;;;;;;;;;;5086552;28;20032;-58
2022/01/14 02:08:51;;;;;;;6.53;2.38;;;;;;;;;;5090847;28;20036;-58
2022/01/14 02:11:18;;;;;;;6.75;1.50;;;;;;;;;;5087622;28;20024;-58
2022/01/14 02:13:44;;;;;;;7.47;1.65;;;;;;;;;;5088297;28;20055;-57
2022/01/14 02:16:20;;;;;;;10.32;2.10;;;;;;;;;;5091308;28;20036;-58
2022/01/14 02:24:31;;;;;;;4.78;1.58;;;;;;;;;;5091588;28;20457;-58
2022/01/14 02:26:55;;;;;;;6.05;1.83;;;;;;;;;;5089594;28;20119;-58
2022/01/14 02:29:21;;;;;;;6.88;1.60;;;;;;;;;;5091075;28;20111;-57
2022/01/14 02:31:47;;;;;;;8.15;2.22;;;;;;;;;;5089646;28;20034;-58
2022/01/14 02:34:14;;;;;;;8.93;2.33;;;;;;;;;;5091847;28;20115;-58
2022/01/14 02:36:42;;;;;;;3.80;1.35;;;;;;;;;;5089363;28;20074;-58
2022/01/14 02:39:09;;;;;;;4.35;1.90;;;;;;;;;;5088251;28;20402;-58
2022/01/14 02:41:36;;;;;;;6.32;1.65;;;;;;;;;;5087442;28;20470;-58
2022/01/14 02:44:07;;;;;;;6.28;2.00;;;;;;;;;;5086798;28;20040;-57
2022/01/14 02:46:40;;;;;;;;;;;;;;;;;;5091989;28;20034;-58
2022/01/14 02:49:08;;;;;;;7.72;1.60;;;;;;;;;;5088171;28;19931;-58
2022/01/14 02:51:33;;;;;;;4.47;1.73;;;;;;;;;;5087812;28;20028;-57
2022/01/14 02:54:12;;;;;;;9.75;2.25;;;;;;;;;;5086728;28;20363;-58
2022/01/14 02:56:41;;;;;;;4.40;1.85;;;;;;;;;;5092477;28;20034;-58
2022/01/14 02:59:09;;;;;;;18.33;2.45;;;;;;;;;;5092598;28;20101;-59
2022/01/14 03:01:36;;;;;;;7.18;2.05;;;;;;;;;;5086436;28;20398;-58
2022/01/14 03:04:03;;;;;;;8.90;2.10;;;;;;;;;;5071936;28;20602;-59
2022/01/14 03:06:30;;;;;;;7.88;2.10;;;;;;;;;;5079592;28;20394;-58
2022/01/14 03:08:56;;;;;;;5.93;2.40;;;;;;;;;;5092641;28;20482;-58
2022/01/14 03:11:57;;;;;;;5.15;1.67;;;;;;;;;;5091751;28;20055;-58
2022/01/14 03:14:24;;;;;;;7.78;1.90;;;;;;;;;;5061107;28;20506;-58
2022/01/14 03:16:54;;;;;;;10.20;1.80;;;;;;;;;;5089470;28;20387;-58
2022/01/14 03:19:24;;;;;;;4.38;1.63;;;;;;;;;;5090471;28;20024;-57
2022/01/14 03:21:53;;;;;;;11.07;2.63;;;;;;;;;;5080978;28;20036;-59
2022/01/14 03:26:46;;;;;;;12.00;4.22;;;;;;;;;;5087666;28;20031;-58
2022/01/14 03:29:13;;;;;;;8.15;2.53;;;;;;;;;;5101638;28;20394;-58
2022/01/14 03:31:38;;;;;;;4.38;1.67;;;;;;;;;;5096047;28;20474;-58
2022/01/14 03:34:04;;;;;;;5.63;1.90;;;;;;;;;;5104399;28;20039;-58
2022/01/14 03:36:30;;;;;;;3.08;1.45;;;;;;;;;;5096672;28;20484;-58
2022/01/14 03:38:55;;;;;;;5.75;1.77;;;;;;;;;;5096753;28;20012;-59
2022/01/14 03:41:21;;;;;;;7.68;1.58;;;;;;;;;;5087545;28;20024;-59
2022/01/14 03:43:46;;;;;;;7.90;1.77;;;;;;;;;;5083818;28;20119;-59
2022/01/14 03:46:12;;;;;;;7.15;1.77;;;;;;;;;;5100722;28;20016;-59
2022/01/14 03:48:37;;;;;;;9.10;2.58;;;;;;;;;;5106032;28;20503;-59
2022/01/14 03:51:03;;;;;;;11.35;3.88;;;;;;;;;;5101068;28;20439;-57
2022/01/14 03:53:28;;;;;;;5.82;2.20;;;;;;;;;;5084530;28;20142;-57
2022/01/14 03:55:54;;;;;;;6.97;2.10;;;;;;;;;;5098950;28;20020;-57
2022/01/14 03:58:19;;;;;;;7.78;2.20;;;;;;;;;;5089972;28;20083;-58
2022/01/14 04:00:45;;;;;;;8.93;2.95;;;;;;;;;;5090438;28;20027;-58
2022/01/14 04:03:10;;;;;;;9.60;2.70;;;;;;;;;;5105644;28;20032;-58
2022/01/14 04:05:36;;;;;;;8.60;2.40;;;;;;;;;;5112781;28;20019;-58
2022/01/14 04:08:02;;;;;;;6.53;3.67;;;;;;;;;;5112578;28;20050;-58
2022/01/14 04:10:28;;;;;;;5.70;1.90;;;;;;;;;;5112936;28;20043;-59
2022/01/14 04:13:13;;;;;;;12.60;2.97;;;;;;;;;;5106144;28;20025;-58
2022/01/14 04:15:41;;;;;;;7.55;2.20;;;;;;;;;;5081008;28;20161;-58
2022/01/14 04:18:26;;;;;;;10.57;2.30;;;;;;;;;;5086313;28;20115;-58
2022/01/14 04:20:52;;;;;;;5.70;1.88;;;;;;;;;;5095954;28;20031;-58
2022/01/14 04:23:23;;;;;;;6.43;2.03;;;;;;;;;;5083861;28;20108;-57
2022/01/14 04:25:53;;;;;;;5.70;2.00;;;;;;;;;;5075638;28;20106;-57
2022/01/14 04:28:23;;;;;;;5.80;1.85;;;;;;;;;;5095011;28;20118;-58
2022/01/14 04:30:54;;;;;;;6.45;1.70;;;;;;;;;;5112679;28;20035;-57
2022/01/14 04:33:20;;;;;;;5.60;2.25;;;;;;;;;;5091708;28;20393;-58
2022/01/14 04:35:45;;;;;;;6.35;2.08;;;;;;;;;;5101258;28;20027;-58
2022/01/14 04:38:11;;;;;;;10.13;2.70;;;;;;;;;;5105973;28;20015;-57
2022/01/14 04:40:36;;;;;;;6.75;2.08;;;;;;;;;;5115778;28;20649;-58
2022/01/14 04:43:02;;;;;;;10.10;2.90;;;;;;;;;;5107874;28;20023;-58
2022/01/14 04:48:08;;;;;;;9.48;2.42;;;;;;;;;;5090738;28;20032;-58
2022/01/14 04:50:34;;;;;;;9.07;2.20;;;;;;;;;;5106290;28;20027;-56
2022/01/14 04:53:00;;;;;;;2.25;1.33;;;;;;;;;;5116444;28;20369;-58
2022/01/14 04:55:26;;;;;;;4.05;1.85;;;;;;;;;;5113825;28;20019;-59
2022/01/14 04:57:54;;;;;;;6.95;1.95;;;;;;;;;;5092404;28;20020;-58
2022/01/14 05:00:22;;;;;;;6.18;2.50;;;;;;;;;;5107386;28;20020;-58
2022/01/14 05:02:48;;;;;;;5.32;2.50;;;;;;;;;;5100887;28;20427;-58
2022/01/14 05:05:17;;;;;;;4.63;2.10;;;;;;;;;;5103992;28;20062;-59
2022/01/14 05:07:45;;;;;;;6.05;2.70;;;;;;;;;;5089652;28;20386;-59
2022/01/14 05:10:36;;;;;;;6.18;2.40;;;;;;;;;;5092858;28;20492;-58
2022/01/14 05:13:02;;;;;;;4.95;2.00;;;;;;;;;;5088681;28;20111;-59
2022/01/14 05:15:29;;;;;;;5.95;2.00;;;;;;;;;;5095289;28;20028;-57
2022/01/14 05:17:54;;;;;;;6.68;1.98;;;;;;;;;;5094434;28;20020;-59
2022/01/14 05:20:20;;;;;;;10.77;2.70;;;;;;;;;;5105198;28;20423;-58
2022/01/14 05:22:46;;;;;;;7.72;2.45;;;;;;;;;;5115715;28;20028;-59
2022/01/14 05:25:14;;;;;;;8.95;2.65;;;;;;;;;;5107215;28;20031;-58
2022/01/14 05:27:40;;;;;;;5.70;2.35;;;;;;;;;;5114826;28;20047;-58
2022/01/14 05:30:08;;;;;;;5.00;2.30;;;;;;;;;;5102328;28;20028;-58
2022/01/14 05:32:34;;;;;;;7.07;3.05;;;;;;;;;;5089151;28;20028;-58
2022/01/14 05:34:59;;;;;;;7.18;2.80;;;;;;;;;;5098587;28;20039;-58
2022/01/14 05:37:25;;;;;;;8.95;3.03;;;;;;;;;;5097772;28;20474;-58
2022/01/14 05:39:50;;;;;;;6.57;3.58;;;;;;;;;;5086177;28;20077;-57
2022/01/14 05:42:16;;;;;;;6.15;3.25;;;;;;;;;;5094843;28;20077;-59
2022/01/14 05:44:42;;;;;;;7.18;3.05;;;;;;;;;;5091274;28;20434;-57
2022/01/14 05:47:08;;;;;;;8.15;3.10;;;;;;;;;;5093979;28;20111;-59
2022/01/14 05:49:33;;;;;;;7.43;2.78;;;;;;;;;;5083501;28;20035;-59
2022/01/14 05:51:59;;;;;;;7.70;2.90;;;;;;;;;;5094828;28;20035;-59
2022/01/14 05:54:24;;;;;;;7.55;3.40;;;;;;;;;;5096516;28;20579;-59
2022/01/14 05:56:50;;;;;;;5.75;2.85;;;;;;;;;;5115064;28;20051;-58
2022/01/14 05:59:16;;;;;;;8.30;3.95;;;;;;;;;;5106746;28;20467;-56
2022/01/14 06:01:42;;;;;;;15.88;7.03;;;;;;;;;;5098916;28;20055;-59
2022/01/14 06:04:08;;;;;;;19.63;8.43;;;;;;;;;;5091538;28;20063;-57
2022/01/14 06:06:34;;;;;;;15.82;5.53;;;;;;;;;;5091996;28;20055;-58
2022/01/14 06:09:01;;;;;;;9.02;3.58;;;;;;;;;;5087397;28;20040;-58
2022/01/14 06:11:27;;;;;;;5.43;2.63;;;;;;;;;;5114300;28;20465;-58
2022/01/14 06:13:53;;;;;;;5.72;3.22;;;;;;;;;;5099842;28;20501;-59
2022/01/14 06:16:18;;;;;;;6.90;3.53;;;;;;;;;;5105350;28;20024;-59
2022/01/14 06:18:45;;;;;;;8.85;4.15;;;;;;;;;;5093957;28;20030;-59
2022/01/14 06:21:10;;;;;;;7.65;3.67;;;;;;;;;;5094169;28;20024;-58
2022/01/14 06:23:36;;;;;;;10.48;3.50;;;;;;;;;;5092418;28;20438;-58
2022/01/14 06:26:02;;;;;;;7.30;3.22;;;;;;;;;;5094096;28;20028;-58
2022/01/14 06:28:27;;;;;;;8.70;3.85;;;;;;;;;;5077769;28;20078;-58
2022/01/14 06:30:53;;;;;;;7.80;3.35;;;;;;;;;;5108144;28;20408;-57
2022/01/14 06:33:18;;;;;;;8.15;3.85;;;;;;;;;;5103979;28;20021;-56
2022/01/14 06:35:44;;;;;;;4.57;2.50;;;;;;;;;;5093826;28;20073;-58
2022/01/14 06:38:10;;;;;;;5.55;3.10;;;;;;;;;;5089103;28;20028;-58
2022/01/14 06:40:36;;;;;;;6.65;3.53;;;;;;;;;;5106640;28;20094;-58
2022/01/14 06:43:04;;;;;;;7.90;3.95;;;;;;;;;;5104162;28;20047;-57
2022/01/14 06:45:31;;;;;;;12.52;4.65;;;;;;;;;;5110322;28;20024;-58
2022/01/14 06:47:56;;;;;;;7.05;3.63;;;;;;;;;;5103655;28;20076;-58
2022/01/14 06:50:22;;;;;;;11.27;3.70;;;;;;;;;;5096011;28;20488;-58
2022/01/14 06:52:47;;;;;;;12.23;5.20;;;;;;;;;;5104528;28;20244;-58
2022/01/14 06:55:13;;;;;;;10.20;4.85;;;;;;;;;;5092726;28;20027;-58
2022/01/14 06:57:39;;;;;;;7.80;4.13;;;;;;;;;;5087089;28;20067;-58
2022/01/14 07:00:07;;;;;;;9.07;3.65;;;;;;;;;;5086683;28;20497;-58
2022/01/14 07:02:33;;;;;;;15.32;7.32;;;;;;;;;;5091467;28;20032;-58
2022/01/14 07:04:58;;;;;;;12.27;4.53;;;;;;;;;;5093377;28;20497;-57
2022/01/14 07:07:24;;;;;;;10.13;4.18;;;;;;;;;;5094134;28;20035;-57
2022/01/14 07:09:56;;;;;;;7.63;3.47;;;;;;;;;;5093402;28;20047;-58
2022/01/14 07:12:35;;;;;;;11.15;3.83;;;;;;;;;;5101235;28;20027;-58
2022/01/14 07:15:02;;;;;;;11.75;4.30;;;;;;;;;;5108297;28;20101;-57
2022/01/14 07:17:28;;;;;;;11.65;4.90;;;;;;;;;;5085660;28;20032;-58
2022/01/14 07:19:57;;;;;;;9.35;5.13;;;;;;;;;;5098699;28;20377;-58
2022/01/14 07:22:22;;;;;;;8.63;4.53;;;;;;;;;;5093225;28;20024;-59
2022/01/14 07:24:48;;;;;;;7.63;3.80;;;;;;;;;;5096714;28;20015;-58
2022/01/14 07:27:14;;;;;;;8.13;3.97;;;;;;;;;;5113525;28;20359;-58
2022/01/14 07:29:40;;;;;;;10.75;4.65;;;;;;;;;;5098574;28;20020;-58
2022/01/14 07:32:07;;;;;;;8.85;3.78;;;;;;;;;;5103539;28;20031;-58
2022/01/14 07:34:33;;;;;;;7.38;3.45;;;;;;;;;;5113135;28;20554;-58
2022/01/14 07:36:59;;;;;;;8.07;3.75;;;;;;;;;;5095231;28;20444;-58
2022/01/14 07:39:24;;;;;;;10.52;4.70;;;;;;;;;;5113040;28;20047;-58
2022/01/14 07:41:51;;;;;;;9.48;4.00;;;;;;;;;;5103372;28;20032;-58
2022/01/14 07:44:16;;;;;;;7.40;3.22;;;;;;;;;;5092454;28;20028;-58
2022/01/14 07:46:42;;;;;;;14.32;5.95;;;;;;;;;;5092737;28;20085;-59
2022/01/14 07:49:08;;;;;;;13.73;5.90;;;;;;;;;;5093713;28;20059;-58
2022/01/14 07:51:34;;;;;;;10.63;4.45;;;;;;;;;;5112939;28;20389;-58
2022/01/14 07:54:05;;;;;;;12.10;5.45;;;;;;;;;;5105611;28;20026;-57
2022/01/14 07:56:45;;;;;;;13.98;5.90;;;;;;;;;;5112970;28;20168;-57
2022/01/14 07:59:13;;;;;;;12.55;5.32;;;;;;;;;;5112907;28;20067;-59
2022/01/14 08:01:40;;;;;;;9.52;5.47;;;;;;;;;;5089808;28;20036;-59
2022/01/14 08:04:05;;;;;;;7.60;3.95;;;;;;;;;;5087838;28;20477;-58
2022/01/14 08:06:33;;;;;;;8.02;3.95;;;;;;;;;;5089496;28;20035;-58
2022/01/14 08:08:59;;;;;;;8.88;3.83;;;;;;;;;;5091443;28;20124;-59
2022/01/14 08:11:25;;;;;;;8.48;3.78;;;;;;;;;;5096668;28;20130;-59
2022/01/14 08:13:50;;;;;;;10.90;4.28;;;;;;;;;;5097921;28;20031;-58
2022/01/14 08:16:16;;;;;;;8.82;3.70;;;;;;;;;;5112602;28;20043;-58
2022/01/14 08:18:41;;;;;;;11.15;3.10;;;;;;;;;;5092749;28;20332;-59
2022/01/14 08:21:07;;;;;;;10.15;3.90;;;;;;;;;;5089460;28;20024;-59
2022/01/14 08:23:33;;;;;;;7.40;3.00;;;;;;;;;;5100301;28;20055;-58
2022/01/14 08:25:58;;;;;;;8.48;2.65;;;;;;;;;;5089616;28;20538;-58
2022/01/14 08:28:25;;;;;;;14.30;5.22;;;;;;;;;;5098067;28;20028;-58
2022/01/14 08:30:50;;;;;;;9.60;3.45;;;;;;;;;;5099044;28;20028;-58
2022/01/14 08:33:17;;;;;;;8.40;2.95;;;;;;;;;;5100108;28;20527;-58
2022/01/14 08:35:43;;;;;;;8.60;3.15;;;;;;;;;;5092011;28;20038;-58
2022/01/14 08:38:08;;;;;;;8.68;3.03;;;;;;;;;;5109201;28;20114;-57
2022/01/14 08:40:34;;;;;;;6.13;2.58;;;;;;;;;;5101544;28;20111;-57
2022/01/14 08:43:00;;;;;;;9.70;2.60;;;;;;;;;;5107646;28;20032;-58
2022/01/14 08:45:26;;;;;;;6.57;2.45;;;;;;;;;;5098699;28;20501;-58
2022/01/14 08:47:54;;;;;;;6.57;2.70;;;;;;;;;;5091602;28;20032;-58
2022/01/14 08:50:29;;;;;;;6.03;2.50;;;;;;;;;;5090524;28;20028;-58
2022/01/14 08:52:56;;;;;;;11.40;3.70;;;;;;;;;;5096024;28;20393;-58
2022/01/14 08:55:23;;;;;;;10.20;3.95;;;;;;;;;;5100917;28;20039;-58
2022/01/14 08:57:48;;;;;;;12.25;3.80;;;;;;;;;;5107703;28;20031;-58
2022/01/14 09:00:18;;;;;;;6.70;2.45;;;;;;;;;;5100072;28;20373;-58
2022/01/14 09:02:44;;;;;;;6.47;2.83;;;;;;;;;;5089999;28;20486;-58
2022/01/14 09:05:11;;;;;;;8.88;3.10;;;;;;;;;;5097715;28;20263;-58
2022/01/14 09:07:37;;;;;;;18.67;5.38;;;;;;;;;;5081331;28;20032;-58
2022/01/14 09:10:04;;;;;;;8.30;4.70;;;;;;;;;;5109512;28;20042;-57
2022/01/14 09:12:29;;;;;;;6.65;2.63;;;;;;;;;;5093511;28;20070;-59
2022/01/14 09:14:55;;;;;;;6.32;2.88;;;;;;;;;;5090932;28;20024;-58
2022/01/14 09:17:21;;;;;;;4.85;2.20;;;;;;;;;;5091635;28;20505;-58
2022/01/14 09:19:46;;;;;;;6.72;2.72;;;;;;;;;;5091482;28;20046;-58
2022/01/14 09:22:17;;;;;;;3.92;1.95;;;;;;;;;;5091360;28;20497;-59
2022/01/14 09:24:44;;;;;;;6.05;3.08;;;;;;;;;;5093830;28;20031;-59
2022/01/14 09:27:10;;;;;;;9.55;4.35;;;;;;;;;;5084567;28;20399;-59
2022/01/14 09:29:36;;;;;;;9.48;3.30;;;;;;;;;;5087512;28;20032;-58
2022/01/14 09:32:02;;;;;;;12.45;5.75;;;;;;;;;;5085572;28;20051;-58
2022/01/14 09:34:27;;;;;;;11.20;3.80;;;;;;;;;;5086396;28;20072;-58
2022/01/14 09:36:52;;;;;;;10.38;3.25;;;;;;;;;;5091212;28;20043;-58
2022/01/14 09:39:18;;;;;;;13.10;4.22;;;;;;;;;;5092434;28;20084;-58
2022/01/14 09:41:45;;;;;;;10.30;4.13;;;;;;;;;;5080168;28;20028;-59
2022/01/14 09:44:14;;;;;;;15.80;6.47;;;;;;;;;;5092580;28;20474;-58
2022/01/14 09:46:40;;;;;;;17.67;6.93;;;;;;;;;;5097543;28;20416;-58
2022/01/14 09:49:05;;;;;;;7.80;3.58;;;;;;;;;;5095505;28;20073;-55
2022/01/14 09:51:30;;;;;;;9.05;3.50;;;;;;;;;;5114871;28;20016;-59
2022/01/14 09:53:56;;;;;;;11.50;4.28;;;;;;;;;;5114773;28;20019;-58
2022/01/14 09:56:23;;;;;;;14.40;4.32;;;;;;;;;;5098252;28;20124;-58
2022/01/14 09:58:49;;;;;;;14.23;5.30;;;;;;;;;;5086353;28;20032;-59
2022/01/14 10:01:23;;;;;;;8.57;2.45;;;;;;;;;;5089980;28;20032;-57
2022/01/14 10:04:01;;;;;;;6.22;2.58;;;;;;;;;;5087711;28;20032;-58
2022/01/14 10:06:43;;;;;;;11.90;3.70;;;;;;;;;;5092087;28;20028;-58
2022/01/14 10:09:49;;;;;;;45.15;19.35;;;;;;;;;;5090885;28;20032;-58
2022/01/14 10:12:17;;;;;;;8.98;4.75;;;;;;;;;;5003250;28;20042;-58
2022/01/14 10:14:58;;;;;;;9.57;4.47;;;;;;;;;;5010368;28;20042;-57
2022/01/14 10:17:25;;;;;;;11.65;6.05;;;;;;;;;;5012084;28;20026;-58
2022/01/14 10:19:52;;;;;;;11.50;4.03;;;;;;;;;;5011609;28;20084;-58
2022/01/14 10:22:25;;;;;;;4.28;2.17;;;;;;;;;;5011886;28;20033;-58
2022/01/14 10:24:54;;;;;;;5.57;2.38;;;;;;;;;;5011803;28;20029;-58
2022/01/14 10:27:32;;;;;;;6.30;2.10;;;;;;;;;;5009245;28;20045;-58
2022/01/14 10:30:08;;;;;;;4.20;2.05;;;;;;;;;;5004074;28;20516;-57
2022/01/14 10:32:36;;;;;;;3.85;2.10;;;;;;;;;;5003404;28;20524;-58
2022/01/14 10:35:10;;;;;;;4.32;1.95;;;;;;;;;;5003882;28;20041;-58
2022/01/14 10:37:37;;;;;;;4.63;1.88;;;;;;;;;;5002408;28;20173;-58
2022/01/14 10:40:14;;;;;;;5.07;2.22;;;;;;;;;;5004824;28;20038;-58
2022/01/14 10:42:41;;;;;;;4.38;2.05;;;;;;;;;;5000284;28;20058;-58
2022/01/14 10:45:19;;;;;;;3.60;1.70;;;;;;;;;;5015400;28;20061;-58
2022/01/14 10:48:00;;;;;;;4.30;1.77;;;;;;;;;;5093332;28;20420;-57
2022/01/14 10:50:44;;;;;;;7.03;1.90;;;;;;;;;;5092536;28;20054;-54
2022/01/14 10:53:17;;;;;;;11.00;2.70;;;;;;;;;;5083410;28;20044;-59
2022/01/14 10:55:42;;;;;;;4.65;2.15;;;;;;;;;;5091720;28;20036;-58
2022/01/14 10:58:14;;;;;;;7.88;2.33;;;;;;;;;;5092398;28;20078;-59
2022/01/14 11:00:44;;;;;;;9.25;3.08;;;;;;;;;;5079078;28;20103;-59
2022/01/14 11:03:10;;;;;;;6.82;2.88;;;;;;;;;;5090299;28;20039;-57
2022/01/14 11:05:35;;;;;;;6.75;2.10;;;;;;;;;;5082447;28;20019;-58
2022/01/14 11:08:02;;;;;;;11.70;3.03;;;;;;;;;;5089477;28;20044;-58
2022/01/14 11:10:33;;;;;;;3.38;1.80;;;;;;;;;;5100304;28;20042;-58
2022/01/14 11:13:00;;;;;;;3.42;1.50;;;;;;;;;;5087120;28;20032;-57
2022/01/14 11:15:27;;;;;;;9.82;3.47;;;;;;;;;;5091964;28;20024;-58
2022/01/14 11:17:55;;;;;;;10.95;5.65;;;;;;;;;;5092750;28;20024;-58
2022/01/14 11:20:29;;;;;;;17.80;6.72;;;;;;;;;;5088802;28;20405;-54
2022/01/14 11:25:43;;;;;;;5.13;2.08;;;;;;;;;;5092112;28;20077;-58
2022/01/14 11:28:09;;;;;;;4.15;2.10;;;;;;;;;;5091362;28;20466;-58
2022/01/14 11:30:38;;;;;;;8.35;2.50;;;;;;;;;;5087218;28;20104;-58
2022/01/14 11:33:05;;;;;;;5.38;1.77;;;;;;;;;;5091065;28;20394;-57
2022/01/14 11:35:32;;;;;;;5.78;1.67;;;;;;;;;;5086009;28;20063;-57
2022/01/14 11:37:59;;;;;;;11.50;3.40;;;;;;;;;;5086796;28;20125;-56
2022/01/14 11:40:24;;;;;;;8.65;3.22;;;;;;;;;;5088718;28;20074;-57
2022/01/14 11:42:58;;;;;;;5.55;2.40;;;;;;;;;;5091251;28;20462;-58
2022/01/14 11:45:40;;;;;;;6.65;3.20;;;;;;;;;;5092185;28;20024;-57
2022/01/14 11:48:06;;;;;;;7.35;3.45;;;;;;;;;;5092768;28;20067;-57
2022/01/14 11:50:32;;;;;;;4.82;2.63;;;;;;;;;;5091598;28;20390;-57
2022/01/14 11:52:59;;;;;;;6.85;3.00;;;;;;;;;;5088946;28;20024;-55
2022/01/14 11:55:27;;;;;;;2.83;1.73;;;;;;;;;;5086853;28;20080;-57
2022/01/14 11:57:54;;;;;;;2.85;1.60;;;;;;;;;;5109586;28;20020;-55
2022/01/14 12:00:30;;;;;;;6.40;1.90;;;;;;;;;;5092412;28;20099;-58
2022/01/14 12:03:07;;;;;;;3.47;1.38;;;;;;;;;;5079934;28;20020;-58
2022/01/14 12:05:58;;;;;;;6.97;1.52;;;;;;;;;;5090880;28;20020;-58
2022/01/14 12:08:36;;;;;;;2.75;0.85;;;;;;;;;;5091944;28;20052;-58
2022/01/14 12:11:07;;;;;;;3.15;1.13;;;;;;;;;;5112523;28;20044;-58
2022/01/14 12:13:48;;;;;;;5.20;1.92;;;;;;;;;;5098803;28;20091;-58
2022/01/14 12:18:59;;;;;;;7.25;3.55;;;;;;;;;;5111077;28;20059;-58
2022/01/14 12:21:42;;;;;;;4.78;2.45;;;;;;;;;;5104214;28;20067;-58
2022/01/14 12:24:27;;;;;;;3.75;2.50;;;;;;;;;;5078906;28;20069;-57
2022/01/14 12:26:52;;;;;;;4.55;1.52;;;;;;;;;;5108324;28;20035;-58
2022/01/14 12:29:20;;;;;;;3.33;1.75;;;;;;;;;;5112334;28;20032;-58
2022/01/14 12:32:11;;;;;;;5.60;1.67;;;;;;;;;;5109207;28;20035;-57
2022/01/14 12:34:57;;;;;;;4.55;2.20;;;;;;;;;;5097030;28;20016;-58
2022/01/14 12:37:23;;;;;;;5.10;1.65;;;;;;;;;;5100194;28;20027;-58
2022/01/14 12:39:50;;;;;;;3.67;0.82;;;;;;;;;;5112195;28;20100;-58
2022/01/14 12:42:18;;;;;;;7.43;2.60;;;;;;;;;;5112335;28;20028;-58
2022/01/14 12:44:45;;;;;;;5.15;1.55;;;;;;;;;;5088300;28;20487;-57
2022/01/14 12:47:18;;;;;;;3.65;1.52;;;;;;;;;;5099013;28;20470;-58
2022/01/14 12:49:44;;;;;;;8.80;2.10;;;;;;;;;;5092551;28;20029;-59
2022/01/14 12:52:16;;;;;;;4.97;1.70;;;;;;;;;;5090015;28;20050;-58
2022/01/14 12:54:44;;;;;;;12.23;2.17;;;;;;;;;;5108290;28;20100;-57
2022/01/14 12:57:14;;;;;;;7.47;2.35;;;;;;;;;;5112797;28;20043;-58
2022/01/14 12:59:42;;;;;;;5.25;1.90;;;;;;;;;;5115876;28;20102;-58
2022/01/14 13:02:14;;;;;;;5.43;1.90;;;;;;;;;;5098033;28;20510;-57
2022/01/14 13:04:39;;;;;;;3.38;1.25;;;;;;;;;;5094836;28;20043;-57
2022/01/14 13:07:05;;;;;;;5.30;1.52;;;;;;;;;;5094681;28;20016;-57
2022/01/14 13:09:36;;;;;;;4.53;1.35;;;;;;;;;;5095277;28;20380;-58
2022/01/14 13:12:03;;;;;;;4.70;1.63;;;;;;;;;;5083511;28;20372;-58
2022/01/14 13:14:29;;;;;;;5.55;1.50;;;;;;;;;;5115587;28;20432;-59
2022/01/14 13:16:56;;;;;;;5.28;1.25;;;;;;;;;;5115349;28;20051;-58
2022/01/14 13:19:35;;;;;;;5.25;1.00;;;;;;;;;;5111488;28;20051;-58
2022/01/14 13:22:08;;;;;;;3.88;1.38;;;;;;;;;;5095133;28;20012;-57
2022/01/14 13:24:36;;;;;;;6.40;1.58;;;;;;;;;;5106597;28;20111;-57
2022/01/14 13:27:12;;;;;;;7.60;1.58;;;;;;;;;;5102214;28;20055;-58
2022/01/14 13:29:49;;;;;;;7.18;1.60;;;;;;;;;;5095085;28;20039;-59
2022/01/14 13:32:23;;;;;;;11.20;2.50;;;;;;;;;;5076687;28;20389;-58
2022/01/14 13:34:51;;;;;;;6.40;1.85;;;;;;;;;;5104054;28;20032;-58
2022/01/14 13:37:19;;;;;;;2.85;1.50;;;;;;;;;;5092170;28;20021;-58
2022/01/14 13:39:45;;;;;;;4.35;1.80;;;;;;;;;;5093692;28;20044;-58
2022/01/14 13:42:24;;;;;;;5.38;1.63;;;;;;;;;;5099728;28;20025;-57
2022/01/14 13:44:49;;;;;;;13.45;1.80;;;;;;;;;;5092435;28;20394;-57
2022/01/14 13:47:24;;;;;;;6.20;1.42;;;;;;;;;;5099050;28;20126;-58
2022/01/14 13:50:09;;;;;;;6.47;1.80;;;;;;;;;;5102871;28;20103;-58
2022/01/14 13:52:34;;;;;;;9.43;2.13;;;;;;;;;;5095195;28;20060;-57
2022/01/14 13:55:00;;;;;;;7.55;2.13;;;;;;;;;;5111692;28;20103;-58
2022/01/14 13:57:25;;;;;;;10.80;2.95;;;;;;;;;;5100635;28;20045;-57
2022/01/14 13:59:51;;;;;;;7.63;1.45;;;;;;;;;;5094329;28;20059;-59
2022/01/14 14:02:26;;;;;;;8.00;3.10;;;;;;;;;;5102677;28;20027;-59
2022/01/14 14:04:55;;;;;;;20.45;9.02;;;;;;;;;;5086921;28;20107;-58
2022/01/14 14:07:22;;;;;;;11.93;2.40;;;;;;;;;;5094045;28;20035;-59
2022/01/14 14:10:10;;;;;;;78.80;30.45;;;;;;;;;;5093964;28;20104;-58
2022/01/14 14:12:46;;;;;;;56.55;23.02;;;;;;;;;;5091405;28;20017;-59
2022/01/14 14:18:04;;;;;;;15.93;7.30;;;;;;;;;;5095552;28;20039;-59
2022/01/14 14:20:29;;;;;;;10.25;2.90;;;;;;;;;;5089096;28;20020;-58
2022/01/14 14:22:55;;;;;;;14.50;4.90;;;;;;;;;;5089851;28;20100;-59
2022/01/14 14:25:26;;;;;;;10.95;2.30;;;;;;;;;;5087189;28;20508;-56
2022/01/14 14:28:08;;;;;;;12.88;2.55;;;;;;;;;;5089312;28;20024;-58
2022/01/14 14:30:36;;;;;;;18.88;3.85;;;;;;;;;;5106002;28;20065;-58
2022/01/14 14:33:06;;;;;;;14.60;2.67;;;;;;;;;;5092959;28;20027;-57
2022/01/14 14:35:35;;;;;;;12.90;4.03;;;;;;;;;;5093288;28;20486;-58
2022/01/14 14:38:04;;;;;;;11.95;4.25;;;;;;;;;;5092873;28;20039;-59
2022/01/14 14:40:32;;;;;;;15.75;5.78;;;;;;;;;;5100686;28;20043;-58
2022/01/14 14:42:59;;;;;;;21.70;3.67;;;;;;;;;;5114086;28;20023;-58
2022/01/14 14:45:24;;;;;;;17.83;4.75;;;;;;;;;;5111524;28;20034;-59
2022/01/14 14:47:50;;;;;;;20.55;8.35;;;;;;;;;;5091907;28;20017;-58
2022/01/14 14:50:20;;;;;;;17.67;4.97;;;;;;;;;;5092693;28;20020;-59
2022/01/14 14:52:45;;;;;;;25.65;11.98;;;;;;;;;;5093126;28;20060;-59
2022/01/14 14:55:12;;;;;;;18.25;5.25;;;;;;;;;;5106898;28;20027;-58
2022/01/14 14:57:41;;;;;;;126.22;43.55;;;;;;;;;;5113522;28;20558;-57
2022/01/14 15:00:10;;;;;;;22.00;4.85;;;;;;;;;;5113250;28;20546;-58
2022/01/14 15:02:36;;;;;;;11.88;3.13;;;;;;;;;;5113751;28;20024;-55
2022/01/14 15:05:01;;;;;;;20.40;7.20;;;;;;;;;;5113942;28;20034;-59
2022/01/14 15:07:27;;;;;;;52.60;17.30;;;;;;;;;;5113984;28;20019;-59
2022/01/14 15:09:53;;;;;;;53.10;16.83;;;;;;;;;;5095059;28;20053;-58
2022/01/14 15:12:19;;;;;;;17.83;6.20;;;;;;;;;;5113696;28;20132;-56
2022/01/14 15:14:46;;;;;;;44.20;16.08;;;;;;;;;;5113174;28;20053;-59
2022/01/14 15:18:10;;;;;;;20.15;6.80;;;;;;;;;;5113610;28;20019;-58
2022/01/14 15:20:06;;;;;;;19.63;5.80;;;;;;;;;;5102701;28;20063;-53